Time;durP1;ratioP1;P1;durP2;ratioP2;P2;SDS_P1;SDS_P2;PMS_P1;PMS_P2;Temp;Humidity;BMP_temperature;BMP_pressure;BME280_temperature;BME280_humidity;BME280_pressure;Samples;Min_cycle;Max_cycle;Signal;HPM_P1;HPM_P2
2021/06/25 00:05:23;;;;;;;3.37;1.13;;;21.50;43.50;;;;;;20542788;28;80853;-67
2021/06/25 00:15:25;;;;;;;3.08;1.38;;;21.40;43.60;;;;;;20538440;28;81663;-67
2021/06/25 00:25:27;;;;;;;3.37;1.07;;;21.20;44.60;;;;;;20566332;28;80340;-67
2021/06/25 00:35:29;;;;;;;;;;;21.20;44.50;;;;;;20541302;28;81331;-68
2021/06/25 00:45:32;;;;;;;0.93;0.53;;;21.20;43.70;;;;;;20573559;28;80729;-67
2021/06/25 00:55:43;;;;;;;3.40;1.23;;;21.40;43.70;;;;;;20547964;28;80161;-68
2021/06/25 01:05:46;;;;;;;2.70;0.90;;;21.30;44.30;;;;;;20548615;28;81523;-67
2021/06/25 01:15:48;;;;;;;2.97;0.60;;;21.20;44.40;;;;;;20549374;28;80949;-68
2021/06/25 01:25:50;;;;;;;1.30;0.60;;;21.10;44.50;;;;;;20549105;28;80111;-67
2021/06/25 01:35:57;;;;;;;3.28;0.60;;;21.10;44.90;;;;;;20546521;28;80805;-67
2021/06/25 01:46:11;;;;;;;3.08;1.10;;;21.10;45.00;;;;;;20558656;28;81905;-71
2021/06/25 01:56:20;;;;;;;2.30;0.63;;;21.00;45.40;;;;;;20555616;28;80938;-71
2021/06/25 02:06:24;;;;;;;1.98;0.80;;;20.90;45.80;;;;;;20540300;28;81133;-71
2021/06/25 02:16:31;;;;;;;1.25;0.70;;;20.80;46.30;;;;;;20548434;28;81191;-71
2021/06/25 02:26:38;;;;;;;1.40;0.68;;;20.90;46.30;;;;;;20545239;28;80035;-71
2021/06/25 02:36:41;;;;;;;2.28;0.30;;;20.90;46.50;;;;;;20504092;28;80382;-71
2021/06/25 02:46:46;;;;;;;0.95;0.38;;;20.80;47.00;;;;;;20542758;28;81808;-70
2021/06/25 02:56:48;;;;;;;2.97;0.43;;;20.70;47.50;;;;;;20522968;28;80880;-70
2021/06/25 03:06:50;;;;;;;1.60;0.60;;;20.70;47.70;;;;;;20544950;28;80364;-70
2021/06/25 03:16:54;;;;;;;1.45;0.50;;;20.50;48.10;;;;;;20538589;28;80493;-71
2021/06/25 03:26:58;;;;;;;1.45;0.60;;;20.60;48.80;;;;;;20540873;28;81126;-70
2021/06/25 03:37:02;;;;;;;0.75;0.40;;;20.50;49.20;;;;;;20543947;28;80848;-69
2021/06/25 03:47:05;;;;;;;2.38;0.77;;;20.40;49.70;;;;;;20534136;28;81585;-67
2021/06/25 03:57:09;;;;;;;1.58;0.40;;;20.40;50.10;;;;;;20553196;28;80747;-70
2021/06/25 04:07:12;;;;;;;1.63;0.80;;;20.20;50.70;;;;;;20546638;28;80813;-67
2021/06/25 04:17:16;;;;;;;4.78;0.70;;;20.10;51.00;;;;;;20551119;28;81333;-68
2021/06/25 04:27:19;;;;;;;1.77;0.50;;;20.00;52.00;;;;;;20549583;28;80751;-68
2021/06/25 04:37:22;;;;;;;2.55;0.38;;;20.00;51.60;;;;;;20553946;28;80707;-68
2021/06/25 04:47:26;;;;;;;1.42;0.55;;;19.90;51.70;;;;;;20549129;28;80138;-71
2021/06/25 04:57:31;;;;;;;3.42;0.60;;;19.90;52.20;;;;;;20547023;28;80035;-72
2021/06/25 05:07:36;;;;;;;3.78;0.70;;;19.80;52.40;;;;;;20538174;28;80805;-71
2021/06/25 05:17:57;;;;;;;3.75;1.00;;;19.70;52.80;;;;;;20545049;28;80488;-70
2021/06/25 05:28:15;;;;;;;2.03;1.05;;;19.70;53.40;;;;;;20565039;28;80640;-70
2021/06/25 05:38:26;;;;;;;2.95;0.70;;;19.80;53.10;;;;;;20551984;28;82255;-70
2021/06/25 05:48:40;;;;;;;1.88;0.70;;;19.90;52.80;;;;;;20543354;28;80596;-70
2021/06/25 05:58:51;;;;;;;2.80;0.65;;;19.90;53.20;;;;;;20547316;28;82551;-70
2021/06/25 06:08:54;;;;;;;3.65;1.02;;;20.00;53.70;;;;;;20542951;28;80611;-70
2021/06/25 06:19:03;;;;;;;4.47;0.98;;;20.10;53.70;;;;;;20542115;28;82895;-70
2021/06/25 06:39:31;;;;;;;3.65;1.92;;;20.30;54.40;;;;;;20534269;28;83132;-75
2021/06/25 06:49:38;;;;;;;9.27;6.60;;;20.40;53.80;;;;;;20555150;28;84412;-75
2021/06/25 06:59:44;;;;;;;25.23;16.77;;;20.50;53.30;;;;;;20538194;28;80674;-72
2021/06/25 07:09:47;;;;;;;30.40;19.45;;;20.70;53.90;;;;;;20530574;28;83922;-71
2021/06/25 07:19:53;;;;;;;6.63;1.40;;;20.80;53.80;;;;;;20516983;28;84547;-71
2021/06/25 07:29:57;;;;;;;3.53;1.17;;;20.90;53.30;;;;;;20549015;28;84341;-71
2021/06/25 07:40:00;;;;;;;6.10;1.52;;;21.00;52.80;;;;;;20537886;28;80769;-72
2021/06/25 07:50:07;;;;;;;7.90;1.92;;;21.20;52.30;;;;;;20517726;28;80879;-71
2021/06/25 08:00:16;;;;;;;7.63;3.30;;;21.40;52.00;;;;;;20526599;28;84020;-73
2021/06/25 08:10:17;;;;;;;3.03;1.27;;;21.60;51.90;;;;;;20532326;28;80656;-72
2021/06/25 08:20:20;;;;;;;3.97;1.47;;;21.80;51.10;;;;;;20520694;28;83308;-72
2021/06/25 08:30:24;;;;;;;;;;;21.90;51.00;;;;;;20511264;28;81546;-76
2021/06/25 08:40:27;;;;;;;8.20;1.83;;;22.10;50.80;;;;;;20542395;28;80614;-75
2021/06/25 08:50:36;;;;;;;5.17;1.90;;;22.40;50.10;;;;;;20547245;28;80935;-73
2021/06/25 09:00:38;;;;;;;6.43;2.78;;;22.60;49.80;;;;;;20542228;28;80798;-74
2021/06/25 09:10:42;;;;;;;5.50;1.75;;;23.00;49.10;;;;;;20541892;28;81133;-75
2021/06/25 09:20:50;;;;;;;8.50;2.22;;;23.30;48.50;;;;;;20524683;28;80755;-78
2021/06/25 09:30:53;;;;;;;6.30;1.63;;;23.70;47.80;;;;;;20515832;28;81723;-78
2021/06/25 09:40:55;;;;;;;7.25;1.35;;;24.20;46.80;;;;;;20505528;28;81497;-76
2021/06/25 09:51:11;;;;;;;4.28;1.63;;;24.70;45.90;;;;;;20513133;28;81767;-76
2021/06/25 10:01:29;;;;;;;7.93;1.70;;;25.20;44.40;;;;;;20511887;28;80798;-75
2021/06/25 10:11:35;;;;;;;2.88;1.45;;;25.80;43.30;;;;;;20518933;28;81145;-76
2021/06/25 10:21:39;;;;;;;4.05;1.40;;;26.30;42.60;;;;;;20539214;28;80664;-75
2021/06/25 10:31:41;;;;;;;4.75;1.40;;;26.90;41.10;;;;;;20546230;28;81790;-74
2021/06/25 10:41:50;;;;;;;3.72;1.33;;;27.40;40.40;;;;;;20526325;28;81104;-77
2021/06/25 10:52:07;;;;;;;4.35;1.52;;;27.80;39.70;;;;;;20542667;28;80454;-74
2021/06/25 11:02:10;;;;;;;4.72;1.05;;;28.80;37.50;;;;;;20532862;28;80694;-73
2021/06/25 11:12:17;;;;;;;6.72;2.08;;;32.50;31.90;;;;;;20534057;28;81631;-76
2021/06/25 11:22:36;;;;;;;2.10;1.00;;;33.40;30.90;;;;;;20549701;28;81473;-74
2021/06/25 11:32:38;;;;;;;4.28;2.60;;;33.50;30.20;;;;;;20530554;28;80519;-72
2021/06/25 11:42:43;;;;;;;5.72;3.30;;;33.50;30.60;;;;;;20518641;28;80183;-73
2021/06/25 11:52:50;;;;;;;10.27;3.13;;;35.10;28.70;;;;;;20521682;28;81412;-74
2021/06/25 12:02:53;;;;;;;4.28;2.30;;;37.80;25.70;;;;;;20535358;28;80729;-73
2021/06/25 12:12:58;;;;;;;3.78;1.80;;;39.00;24.50;;;;;;20531469;28;81609;-74
2021/06/25 12:23:06;;;;;;;5.60;2.03;;;40.20;23.40;;;;;;20551553;28;81089;-74
2021/06/25 12:33:09;;;;;;;5.40;1.87;;;41.00;22.70;;;;;;20551165;28;80164;-74
2021/06/25 12:43:20;;;;;;;5.80;2.00;;;41.90;21.80;;;;;;20532154;28;82652;-73
2021/06/25 12:53:27;;;;;;;5.75;2.03;;;42.40;20.90;;;;;;20538091;28;82589;-74
2021/06/25 13:03:30;;;;;;;10.50;3.53;;;43.00;20.40;;;;;;20546524;28;81647;-74
2021/06/25 13:13:35;;;;;;;6.55;3.20;;;43.30;20.00;;;;;;20548892;28;80526;-73
2021/06/25 13:23:38;;;;;;;4.97;1.90;;;43.80;19.70;;;;;;20537609;28;81195;-73
2021/06/25 13:33:42;;;;;;;3.60;2.00;;;43.90;19.50;;;;;;20530168;28;81689;-73
2021/06/25 13:43:48;;;;;;;4.22;1.58;;;42.10;20.50;;;;;;20542024;28;81831;-74
2021/06/25 13:53:52;;;;;;;2.53;1.30;;;36.90;25.00;;;;;;20549595;28;81027;-73
2021/06/25 14:04:08;;;;;;;4.97;2.25;;;34.90;27.00;;;;;;20545055;28;80629;-74
2021/06/25 14:14:11;;;;;;;4.13;1.80;;;33.50;28.50;;;;;;20544098;28;81845;-76
2021/06/25 14:24:14;;;;;;;9.65;2.00;;;32.80;28.30;;;;;;20558174;28;81990;-76
2021/06/25 14:34:16;;;;;;;2.97;1.40;;;32.40;30.10;;;;;;20553044;28;81061;-77
2021/06/25 14:44:18;;;;;;;5.10;1.73;;;32.10;30.30;;;;;;20521257;28;80327;-77
2021/06/25 14:54:21;;;;;;;5.63;1.75;;;31.70;31.10;;;;;;20538488;28;81121;-74
2021/06/25 15:04:23;;;;;;;2.55;1.40;;;31.70;30.90;;;;;;20508893;28;80702;-74
2021/06/25 15:14:25;;;;;;;5.30;1.35;;;31.40;31.50;;;;;;20547506;28;80708;-75
2021/06/25 15:24:27;;;;;;;5.90;1.33;;;31.10;31.80;;;;;;20545687;28;80647;-75
2021/06/25 15:34:29;;;;;;;2.40;1.20;;;30.70;32.30;;;;;;20543666;28;85389;-75
2021/06/25 15:44:31;;;;;;;2.40;1.25;;;30.50;32.50;;;;;;20538167;28;80026;-74
2021/06/25 15:54:34;;;;;;;2.63;1.38;;;30.40;32.60;;;;;;20631642;28;80670;-75
2021/06/25 16:04:36;;;;;;;2.33;1.52;;;30.00;33.30;;;;;;20613024;28;80070;-74
2021/06/25 16:14:38;;;;;;;5.82;1.30;;;30.00;33.10;;;;;;20551554;28;81899;-75
2021/06/25 16:24:43;;;;;;;2.45;1.30;;;29.90;33.20;;;;;;20561424;28;80630;-75
2021/06/25 16:34:44;;;;;;;1.95;1.02;;;29.50;33.90;;;;;;20630385;28;80899;-75
2021/06/25 16:44:48;;;;;;;4.07;1.67;;;29.30;34.10;;;;;;20528463;28;83041;-71
2021/06/25 16:54:50;;;;;;;6.30;4.38;;;29.10;34.50;;;;;;20538410;28;80706;-71
2021/06/25 17:04:52;;;;;;;5.60;4.05;;;29.10;34.20;;;;;;20522638;28;80735;-73
2021/06/25 17:14:53;;;;;;;7.75;2.58;;;29.00;33.80;;;;;;20502244;28;80972;-70
2021/06/25 17:24:55;;;;;;;6.00;2.60;;;28.80;33.70;;;;;;20509847;28;82849;-71
2021/06/25 17:34:57;;;;;;;2.35;1.42;;;28.80;33.90;;;;;;20541523;28;80872;-72
2021/06/25 17:44:59;;;;;;;4.43;1.67;;;28.70;33.80;;;;;;20544377;28;82817;-72
2021/06/25 17:55:02;;;;;;;2.60;1.80;;;28.70;34.00;;;;;;20543735;28;82061;-70
2021/06/25 18:05:05;;;;;;;10.23;4.40;;;28.50;34.30;;;;;;20548623;28;80318;-71
2021/06/25 18:15:09;;;;;;;11.40;4.00;;;28.30;34.50;;;;;;20532101;28;80738;-71
2021/06/25 18:25:11;;;;;;;10.40;3.72;;;28.20;34.80;;;;;;20527472;28;80557;-72
2021/06/25 18:35:14;;;;;;;5.60;2.88;;;28.10;33.90;;;;;;20502056;28;80682;-70
2021/06/25 18:45:18;;;;;;;5.07;2.20;;;28.00;34.50;;;;;;20542505;28;81094;-71
2021/06/25 18:55:22;;;;;;;4.80;2.15;;;27.80;34.70;;;;;;20520242;28;81192;-71
2021/06/25 19:05:25;;;;;;;9.02;3.13;;;27.70;35.30;;;;;;20534721;28;81676;-72
2021/06/25 19:15:26;;;;;;;14.52;8.52;;;27.50;36.30;;;;;;20536952;28;80734;-70
2021/06/25 19:25:29;;;;;;;16.67;8.48;;;27.30;36.40;;;;;;20535406;28;80916;-71
2021/06/25 19:35:31;;;;;;;9.63;6.20;;;26.90;37.30;;;;;;20542493;28;80988;-71
2021/06/25 19:45:33;;;;;;;11.85;7.50;;;26.80;37.50;;;;;;20528339;28;81316;-71
2021/06/25 19:55:35;;;;;;;6.45;3.15;;;26.60;39.50;;;;;;20540175;28;80779;-72
2021/06/25 20:05:38;;;;;;;60.08;39.75;;;26.30;42.80;;;;;;20543011;28;80423;-72
2021/06/25 20:15:40;;;;;;;29.02;15.90;;;26.00;43.50;;;;;;20510306;28;83432;-71
2021/06/25 20:25:41;;;;;;;23.15;14.90;;;25.80;44.60;;;;;;20525257;28;85128;-71
2021/06/25 20:35:43;;;;;;;14.18;8.73;;;25.70;44.80;;;;;;20522581;28;84010;-70
2021/06/25 20:45:45;;;;;;;16.20;8.27;;;25.50;45.70;;;;;;20556367;28;83368;-72
2021/06/25 20:55:52;;;;;;;17.05;7.78;;;25.40;45.70;;;;;;20536589;28;80587;-71
2021/06/25 21:05:56;;;;;;;39.88;25.70;;;25.20;45.80;;;;;;20540392;28;81542;-75
2021/06/25 21:15:58;;;;;;;17.00;10.40;;;25.10;46.10;;;;;;20535511;28;82826;-75
2021/06/25 21:26:00;;;;;;;13.32;5.72;;;25.00;46.30;;;;;;20526920;28;83657;-77
2021/06/25 21:36:02;;;;;;;12.80;5.95;;;24.90;46.30;;;;;;20542542;28;83329;-75
2021/06/25 21:46:04;;;;;;;10.23;5.25;;;24.80;46.70;;;;;;20527709;28;81937;-77
2021/06/25 21:56:05;;;;;;;23.58;12.45;;;24.90;45.90;;;;;;20551825;28;81556;-76
2021/06/25 22:06:09;;;;;;;6.72;3.10;;;24.80;45.90;;;;;;20531903;28;84112;-78
2021/06/25 22:16:10;;;;;;;16.30;7.50;;;24.90;45.90;;;;;;20532431;28;85096;-77
2021/06/25 22:26:13;;;;;;;11.45;5.07;;;24.70;46.40;;;;;;20539224;28;81255;-75
2021/06/25 22:36:15;;;;;;;11.00;3.97;;;24.50;47.40;;;;;;20538602;28;80078;-77
2021/06/25 22:46:16;;;;;;;;;;;24.30;48.10;;;;;;20534244;28;80703;-73
2021/06/25 22:56:18;;;;;;;7.50;4.67;;;24.10;48.70;;;;;;20556768;28;80771;-76
2021/06/25 23:06:20;;;;;;;12.88;4.95;;;23.90;49.60;;;;;;20536344;28;81639;-76
2021/06/25 23:16:22;;;;;;;8.10;4.65;;;23.70;50.60;;;;;;20536249;28;80645;-76
2021/06/25 23:26:25;;;;;;;4.57;3.10;;;23.70;51.00;;;;;;20527405;28;80909;-73
2021/06/25 23:36:27;;;;;;;9.10;3.90;;;23.50;50.50;;;;;;20527683;28;80854;-72
2021/06/25 23:46:29;;;;;;;13.60;4.68;;;23.40;51.00;;;;;;20548127;28;80378;-72
2021/06/25 23:56:30;;;;;;;8.38;4.43;;;23.30;50.80;;;;;;20533363;28;80492;-72
